Time;durP1;ratioP1;P1;durP2;ratioP2;P2;SDS_P1;SDS_P2;PMS_P1;PMS_P2;Temp;Humidity;BMP_temperature;BMP_pressure;BME280_temperature;BME280_humidity;BME280_pressure;Samples;Min_cycle;Max_cycle;Signal;HPM_P1;HPM_P2
2021/03/26 00:01:51;;;;;;;;;;;6.90;99.90;;;;;;5083575;28;19913;-63
2021/03/26 00:04:18;;;;;;;;;;;7.00;99.90;;;;;;5086087;28;19924;-63
2021/03/26 00:06:46;;;;;;;;;;;7.00;99.90;;;;;;5091317;28;19917;-63
2021/03/26 00:09:17;;;;;;;;;;;7.00;99.90;;;;;;5088337;28;20272;-63
2021/03/26 00:11:43;;;;;;;;;;;7.00;99.90;;;;;;5091633;28;19912;-63
2021/03/26 00:14:09;;;;;;;;;;;6.90;99.90;;;;;;5089962;28;19935;-63
2021/03/26 00:16:34;;;;;;;;;;;6.90;99.90;;;;;;5084801;28;20300;-64
2021/03/26 00:19:00;;;;;;;;;;;6.80;99.90;;;;;;5091676;28;19916;-63
2021/03/26 00:21:26;;;;;;;;;;;6.80;99.90;;;;;;5082251;28;19924;-63
2021/03/26 00:23:52;;;;;;;;;;;6.70;99.90;;;;;;5087374;28;19924;-63
2021/03/26 00:26:18;;;;;;;;;;;6.60;99.90;;;;;;5089775;28;20372;-63
2021/03/26 00:28:44;;;;;;;;;;;6.50;99.90;;;;;;5090787;28;19928;-63
2021/03/26 00:31:10;;;;;;;;;;;6.40;99.90;;;;;;5085983;28;20335;-63
2021/03/26 00:33:36;;;;;;;;;;;6.30;99.90;;;;;;5087562;28;19917;-63
2021/03/26 00:36:02;;;;;;;;;;;6.20;99.90;;;;;;5092268;28;19927;-63
2021/03/26 00:38:28;;;;;;;;;;;6.20;99.90;;;;;;5092032;28;19916;-63
2021/03/26 00:40:54;;;;;;;;;;;6.10;99.90;;;;;;5088333;28;19916;-63
2021/03/26 00:43:20;;;;;;;;;;;6.00;99.90;;;;;;5084706;28;19916;-63
2021/03/26 00:45:46;;;;;;;;;;;6.00;99.90;;;;;;5091030;28;20420;-63
2021/03/26 00:48:12;;;;;;;;;;;5.90;99.90;;;;;;5084906;28;19920;-63
2021/03/26 00:50:39;;;;;;;;;;;5.90;99.90;;;;;;5085663;28;20386;-63
2021/03/26 00:53:06;;;;;;;;;;;5.80;99.90;;;;;;5083303;28;19912;-63
2021/03/26 00:55:32;;;;;;;;;;;5.80;99.90;;;;;;5084766;28;19912;-63
2021/03/26 00:57:58;;;;;;;;;;;5.80;99.90;;;;;;5070809;28;20007;-63
2021/03/26 01:00:25;;;;;;;;;;;5.70;99.90;;;;;;5083947;28;19932;-64
2021/03/26 01:02:50;;;;;;;;;;;5.70;99.90;;;;;;5085623;28;19919;-63
2021/03/26 01:05:19;;;;;;;;;;;5.60;99.90;;;;;;5086141;28;19920;-63
2021/03/26 01:07:46;;;;;;;;;;;5.60;99.90;;;;;;5090595;28;19909;-63
2021/03/26 01:10:12;;;;;;;;;;;5.60;99.90;;;;;;5091674;28;19920;-63
2021/03/26 01:12:38;;;;;;;;;;;5.50;99.90;;;;;;5094464;28;19912;-63
2021/03/26 01:15:04;;;;;;;;;;;5.50;99.90;;;;;;5092773;28;19912;-63
2021/03/26 01:17:31;;;;;;;;;;;5.50;99.90;;;;;;5091131;28;20449;-63
2021/03/26 01:19:57;;;;;;;;;;;5.40;99.90;;;;;;5092480;28;19912;-63
2021/03/26 01:22:23;;;;;;;;;;;5.40;99.90;;;;;;5092074;28;20372;-63
2021/03/26 01:24:49;;;;;;;;;;;5.30;99.90;;;;;;5082518;28;19932;-63
2021/03/26 01:27:15;;;;;;;;;;;5.30;99.90;;;;;;5088390;28;19915;-63
2021/03/26 01:29:41;;;;;;;;;;;5.30;99.90;;;;;;5084763;28;19920;-63
2021/03/26 01:32:07;;;;;;;;;;;5.30;99.90;;;;;;5088959;28;20380;-63
2021/03/26 01:34:33;;;;;;;;;;;5.20;99.90;;;;;;5090658;28;19912;-61
2021/03/26 01:36:59;;;;;;;;;;;5.20;99.90;;;;;;5089320;28;21491;-62
2021/03/26 01:39:25;;;;;;;;;;;5.10;99.90;;;;;;5094357;28;19916;-63
2021/03/26 01:41:51;;;;;;;;;;;5.10;99.90;;;;;;5091784;28;19916;-63
2021/03/26 01:44:18;;;;;;;;;;;5.00;99.90;;;;;;5093073;28;19924;-61
2021/03/26 01:46:44;;;;;;;;;;;5.00;99.90;;;;;;5093175;28;19913;-61
2021/03/26 01:49:10;;;;;;;;;;;5.00;99.90;;;;;;5089923;28;19912;-63
2021/03/26 01:51:40;;;;;;;;;;;4.90;99.90;;;;;;5082611;28;20423;-63
2021/03/26 01:54:07;;;;;;;;;;;5.00;99.90;;;;;;5089876;28;19912;-63
2021/03/26 01:56:33;;;;;;;;;;;4.90;99.90;;;;;;5090781;28;19920;-63
2021/03/26 01:58:58;;;;;;;;;;;4.90;99.90;;;;;;5088185;28;19923;-63
2021/03/26 02:01:34;;;;;;;;;;;4.90;99.90;;;;;;5088796;28;19912;-61
2021/03/26 02:04:01;;;;;;;;;;;4.90;99.90;;;;;;5091616;28;19927;-61
2021/03/26 02:06:34;;;;;;;;;;;4.80;99.90;;;;;;5095346;28;19916;-63
2021/03/26 02:09:01;;;;;;;;;;;4.80;99.90;;;;;;5089788;28;19925;-63
2021/03/26 02:11:28;;;;;;;;;;;4.80;99.90;;;;;;5094039;28;19912;-63
2021/03/26 02:13:53;;;;;;;;;;;4.70;99.90;;;;;;5069178;28;19912;-61
2021/03/26 02:16:20;;;;;;;;;;;4.80;99.90;;;;;;5091961;28;19911;-61
2021/03/26 02:18:46;;;;;;;;;;;4.70;99.90;;;;;;5091250;28;19916;-62
2021/03/26 02:21:16;;;;;;;;;;;4.70;99.90;;;;;;5087139;28;19920;-62
2021/03/26 02:23:42;;;;;;;;;;;4.70;99.90;;;;;;5092722;28;20315;-63
2021/03/26 02:26:11;;;;;;;;;;;4.80;99.90;;;;;;5083863;28;19912;-61
2021/03/26 02:28:37;;;;;;;;;;;4.80;99.90;;;;;;5090793;28;19917;-61
2021/03/26 02:31:03;;;;;;;;;;;4.80;99.90;;;;;;5084919;28;19943;-63
2021/03/26 02:33:28;;;;;;;;;;;4.80;99.90;;;;;;5092787;28;20015;-61
2021/03/26 02:36:13;;;;;;;;;;;4.90;99.90;;;;;;5091539;28;20288;-61
2021/03/26 02:38:39;;;;;;;;;;;4.90;99.90;;;;;;5087997;28;19935;-61
2021/03/26 02:41:08;;;;;;;;;;;5.00;99.90;;;;;;5090110;28;19956;-60
2021/03/26 02:43:45;;;;;;;;;;;5.00;99.90;;;;;;5093732;28;19931;-61
2021/03/26 02:46:15;;;;;;;;;;;5.00;99.90;;;;;;5073711;28;19912;-61
2021/03/26 02:49:10;;;;;;;;;;;5.00;99.90;;;;;;5087336;28;20296;-63
2021/03/26 02:51:38;;;;;;;;;;;5.00;99.90;;;;;;5053563;28;19913;-63
2021/03/26 02:54:07;;;;;;;;;;;5.00;99.90;;;;;;5092525;28;19960;-61
2021/03/26 02:56:41;;;;;;;;;;;5.10;99.90;;;;;;5093519;28;20389;-61
2021/03/26 02:59:08;;;;;;;;;;;5.10;99.90;;;;;;5090808;28;19923;-61
2021/03/26 03:01:37;;;;;;;;;;;5.10;99.90;;;;;;5091736;28;19923;-61
2021/03/26 03:04:05;;;;;;;;;;;5.10;99.90;;;;;;5091841;28;19920;-63
2021/03/26 03:06:34;;;;;;;;;;;5.10;99.90;;;;;;5091035;28;19920;-61
2021/03/26 03:09:00;;;;;;;;;;;5.10;99.90;;;;;;5089148;28;19912;-61
2021/03/26 03:11:33;;;;;;;;;;;5.20;99.90;;;;;;5091743;28;20441;-63
2021/03/26 03:14:02;;;;;;;;;;;5.20;99.90;;;;;;5085710;28;19923;-63
2021/03/26 03:16:35;;;;;;;;;;;5.20;99.90;;;;;;5090331;28;19908;-63
2021/03/26 03:19:01;;;;;;;;;;;5.20;99.90;;;;;;5087023;28;19919;-63
2021/03/26 03:21:29;;;;;;;;;;;5.20;99.90;;;;;;5088410;28;20352;-63
2021/03/26 03:24:15;;;;;;;;;;;5.30;99.90;;;;;;5091600;28;19920;-63
2021/03/26 03:26:55;;;;;;;;;;;5.20;99.90;;;;;;5089789;28;20383;-63
2021/03/26 03:29:31;;;;;;;;;;;5.20;99.90;;;;;;5104197;28;19928;-63
2021/03/26 03:32:01;;;;;;;;;;;5.30;99.90;;;;;;5091907;28;19916;-63
2021/03/26 03:34:31;;;;;;;;;;;5.40;99.90;;;;;;5091010;28;19912;-63
2021/03/26 03:37:30;;;;;;;;;;;5.30;99.90;;;;;;5091410;28;19932;-63
2021/03/26 03:40:03;;;;;;;;;;;5.40;99.90;;;;;;5082733;28;19953;-62
2021/03/26 03:42:29;;;;;;;;;;;5.40;99.90;;;;;;5088641;28;19920;-63
2021/03/26 03:44:58;;;;;;;;;;;5.40;99.90;;;;;;5090593;28;20399;-63
2021/03/26 03:47:23;;;;;;;;;;;5.40;99.90;;;;;;5087458;28;19924;-61
2021/03/26 03:49:56;;;;;;;;;;;5.40;99.90;;;;;;5089983;28;19999;-63
2021/03/26 03:52:35;;;;;;;;;;;5.40;99.90;;;;;;5092549;28;19912;-63
2021/03/26 03:55:02;;;;;;;;;;;5.40;99.90;;;;;;5086245;28;20387;-63
2021/03/26 03:57:29;;;;;;;;;;;5.50;99.90;;;;;;5088324;28;19919;-63
2021/03/26 04:00:01;;;;;;;;;;;5.50;99.90;;;;;;5087294;28;20284;-62
2021/03/26 04:02:31;;;;;;;;;;;5.50;99.90;;;;;;5091084;28;19919;-63
2021/03/26 04:05:00;;;;;;;;;;;5.50;99.90;;;;;;5085514;28;20285;-63
2021/03/26 04:07:37;;;;;;;;;;;5.50;99.90;;;;;;5087689;28;20379;-63
2021/03/26 04:10:12;;;;;;;;;;;5.50;99.90;;;;;;5089079;28;19916;-63
2021/03/26 04:12:39;;;;;;;;;;;5.60;99.90;;;;;;5078376;28;19964;-63
2021/03/26 04:15:22;;;;;;;;;;;5.60;99.90;;;;;;5088427;28;19912;-63
2021/03/26 04:17:56;;;;;;;;;;;5.60;99.90;;;;;;5089876;28;19912;-63
2021/03/26 04:20:28;;;;;;;;;;;5.60;99.90;;;;;;5090048;28;19912;-63
2021/03/26 04:22:58;;;;;;;;;;;5.60;99.90;;;;;;5089432;28;19912;-62
2021/03/26 04:25:25;;;;;;;;;;;5.60;99.90;;;;;;5085854;28;19932;-62
2021/03/26 04:27:59;;;;;;;;;;;5.60;99.90;;;;;;5079460;28;19916;-62
2021/03/26 04:30:26;;;;;;;;;;;5.60;99.90;;;;;;5087996;28;20719;-62
2021/03/26 04:32:52;;;;;;;;;;;5.60;99.90;;;;;;5081463;28;19912;-62
2021/03/26 04:35:18;;;;;;;;;;;5.50;99.90;;;;;;5091128;28;19912;-62
2021/03/26 04:37:54;;;;;;;;;;;5.50;99.90;;;;;;5070859;28;20384;-62
2021/03/26 04:40:27;;;;;;;;;;;5.50;99.90;;;;;;5085424;28;19927;-62
2021/03/26 04:42:56;;;;;;;;;;;5.50;99.90;;;;;;5085443;28;19917;-62
2021/03/26 04:45:24;;;;;;;;;;;5.50;99.90;;;;;;5075424;28;19936;-62
2021/03/26 04:48:23;;;;;;;;;;;5.50;99.90;;;;;;5090658;28;19913;-62
2021/03/26 04:51:00;;;;;;;;;;;5.50;99.90;;;;;;5069363;28;19931;-62
2021/03/26 04:53:35;;;;;;;;;;;5.50;99.90;;;;;;5091363;28;19931;-62
2021/03/26 04:56:02;;;;;;;;;;;5.50;99.90;;;;;;5088189;28;19912;-62
2021/03/26 04:58:29;;;;;;;;;;;5.50;99.90;;;;;;5088444;28;20384;-62
2021/03/26 05:01:09;;;;;;;;;;;5.40;99.90;;;;;;5089906;28;19916;-62
2021/03/26 05:03:35;;;;;;;;;;;5.40;99.90;;;;;;5088297;28;19916;-62
2021/03/26 05:06:21;;;;;;;;;;;5.40;99.90;;;;;;5092098;28;19919;-62
2021/03/26 05:09:01;;;;;;;;;;;5.40;99.90;;;;;;5086696;28;20357;-62
2021/03/26 05:11:28;;;;;;;;;;;5.30;99.90;;;;;;5073544;28;19908;-62
2021/03/26 05:14:14;;;;;;;;;;;5.30;99.90;;;;;;5091144;28;19912;-62
2021/03/26 05:17:00;;;;;;;;;;;5.30;99.90;;;;;;5083923;28;19912;-62
2021/03/26 05:19:29;;;;;;;;;;;5.20;99.90;;;;;;5081659;28;19908;-62
2021/03/26 05:22:15;;;;;;;;;;;5.20;99.90;;;;;;5085033;28;19908;-60
2021/03/26 05:24:44;;;;;;;;;;;5.20;99.90;;;;;;5068500;28;19927;-61
2021/03/26 05:27:10;;;;;;;;;;;5.20;99.90;;;;;;5087421;28;20276;-63
2021/03/26 05:29:36;;;;;;;;;;;5.20;99.90;;;;;;5083774;28;20404;-60
2021/03/26 05:32:12;;;;;;;;;;;5.20;99.90;;;;;;5077759;28;19924;-60
2021/03/26 05:34:53;;;;;;;;;;;5.20;99.90;;;;;;5083438;28;20395;-63
2021/03/26 05:37:28;;;;;;;;;;;5.20;99.90;;;;;;5083446;28;20281;-62
2021/03/26 05:39:55;;;;;;;;;;;5.30;99.90;;;;;;5085517;28;19923;-62
2021/03/26 05:42:33;;;;;;;;;;;5.30;99.90;;;;;;5084374;28;20410;-61
2021/03/26 05:45:02;;;;;;;;;;;5.30;99.90;;;;;;5083809;28;19917;-62
2021/03/26 05:47:36;;;;;;;;;;;5.30;99.90;;;;;;5099817;28;19916;-62
2021/03/26 05:50:11;;;;;;;;;;;5.40;99.90;;;;;;5082329;28;19912;-62
2021/03/26 05:52:45;;;;;;;;;;;5.40;99.90;;;;;;5085118;28;19927;-61
2021/03/26 05:55:30;;;;;;;;;;;5.50;99.90;;;;;;5082065;28;19908;-61
2021/03/26 05:57:58;;;;;;;;;;;5.50;99.90;;;;;;5089081;28;19931;-61
2021/03/26 06:00:29;;;;;;;;;;;5.50;99.90;;;;;;5087113;28;19915;-61
2021/03/26 06:02:58;;;;;;;;;;;5.50;99.90;;;;;;5087016;28;19915;-61
2021/03/26 06:05:42;;;;;;;;;;;5.50;99.90;;;;;;5087044;28;19924;-62
2021/03/26 06:08:37;;;;;;;;;;;5.60;99.90;;;;;;5088590;28;19908;-62
2021/03/26 06:11:06;;;;;;;;;;;5.60;99.90;;;;;;5078528;28;19912;-62
2021/03/26 06:13:32;;;;;;;;;;;5.70;99.90;;;;;;5088542;28;20293;-62
2021/03/26 06:16:01;;;;;;;;;;;5.70;99.90;;;;;;5085711;28;19939;-62
2021/03/26 06:18:27;;;;;;;;;;;5.70;99.90;;;;;;5084964;28;19912;-62
2021/03/26 06:21:03;;;;;;;;;;;5.70;99.90;;;;;;5085289;28;20360;-62
2021/03/26 06:23:48;;;;;;;;;;;5.80;99.90;;;;;;5084892;28;19916;-62
2021/03/26 06:26:20;;;;;;;;;;;5.80;99.90;;;;;;5089292;28;19924;-62
2021/03/26 06:28:52;;;;;;;;;;;5.90;99.90;;;;;;5088148;28;19924;-62
2021/03/26 06:31:35;;;;;;;;;;;5.90;99.90;;;;;;5094263;28;19912;-62
2021/03/26 06:34:19;;;;;;;;;;;6.00;99.90;;;;;;5092380;28;19920;-63
2021/03/26 06:36:48;;;;;;;;;;;6.00;99.90;;;;;;5091576;28;19945;-63
2021/03/26 06:39:33;;;;;;;;;;;6.10;99.90;;;;;;5090888;28;19927;-62
2021/03/26 06:41:58;;;;;;;;;;;6.20;99.90;;;;;;5090549;28;19916;-63
2021/03/26 06:44:43;;;;;;;;;;;6.20;99.90;;;;;;5089306;28;19959;-63
2021/03/26 06:47:27;;;;;;;;;;;6.30;99.90;;;;;;5089837;28;19920;-62
2021/03/26 06:49:55;;;;;;;;;;;6.30;99.90;;;;;;5087687;28;19908;-63
2021/03/26 06:52:20;;;;;;;;;;;6.30;99.90;;;;;;5088599;28;19932;-64
2021/03/26 06:54:59;;;;;;;;;;;6.30;99.90;;;;;;5083255;28;19985;-63
2021/03/26 06:57:30;;;;;;;;;;;6.30;99.90;;;;;;5091268;28;20384;-63
2021/03/26 07:00:05;;;;;;;;;;;6.40;99.90;;;;;;5091306;28;20276;-63
2021/03/26 07:02:45;;;;;;;;;;;6.40;99.90;;;;;;5089484;28;19919;-63
2021/03/26 07:05:14;;;;;;;;;;;6.50;99.90;;;;;;5086798;28;19943;-63
2021/03/26 07:07:58;;;;;;;;;;;6.60;99.90;;;;;;5089890;28;20266;-63
2021/03/26 07:10:41;;;;;;;;;;;6.60;99.90;;;;;;5091450;28;19931;-63
2021/03/26 07:13:16;;;;;;;;;;;6.60;99.90;;;;;;5091479;28;19920;-64
2021/03/26 07:15:44;;;;;;;;;;;6.70;99.90;;;;;;5088718;28;20284;-63
2021/03/26 07:18:10;;;;;;;;;;;6.70;99.90;;;;;;5089514;28;19916;-64
2021/03/26 07:20:54;;;;;;;;;;;6.80;99.90;;;;;;5091938;28;19950;-63
2021/03/26 07:23:20;;;;;;;;;;;6.80;99.90;;;;;;5091044;28;19912;-63
2021/03/26 07:26:05;;;;;;;;;;;6.80;99.90;;;;;;5092067;28;20352;-63
2021/03/26 07:28:37;;;;;;;;;;;6.90;99.90;;;;;;5091111;28;20364;-63
2021/03/26 07:31:21;;;;;;;;;;;6.90;99.90;;;;;;5087798;28;19912;-63
2021/03/26 07:33:50;;;;;;;;;;;6.90;99.90;;;;;;5092825;28;19927;-64
2021/03/26 07:36:22;;;;;;;;;;;6.90;99.90;;;;;;5091424;28;19920;-64
2021/03/26 07:38:54;;;;;;;;;;;7.00;99.90;;;;;;5092987;28;19919;-64
2021/03/26 07:41:29;;;;;;;;;;;7.10;99.90;;;;;;5087647;28;20478;-64
2021/03/26 07:44:13;;;;;;;;;;;7.10;99.90;;;;;;5087595;28;19912;-64
2021/03/26 07:46:39;;;;;;;;;;;7.10;99.90;;;;;;5089366;28;20387;-64
2021/03/26 07:49:14;;;;;;;;;;;7.10;99.90;;;;;;5087356;28;19912;-63
2021/03/26 07:51:40;;;;;;;;;;;7.20;99.90;;;;;;5086728;28;19912;-64
2021/03/26 07:54:39;;;;;;;;;;;7.20;99.90;;;;;;5088562;28;20351;-64
2021/03/26 07:57:23;;;;;;;;;;;7.10;99.90;;;;;;5075192;28;19912;-64
2021/03/26 07:59:52;;;;;;;;;;;7.00;99.90;;;;;;5089150;28;19923;-64
2021/03/26 08:02:18;;;;;;;;;;;7.00;99.90;;;;;;5089734;28;20471;-63
2021/03/26 08:04:43;;;;;;;;;;;7.00;99.90;;;;;;5088367;28;19928;-64
2021/03/26 08:07:28;;;;;;;;;;;7.20;99.90;;;;;;5091281;28;19916;-64
2021/03/26 08:09:57;;;;;;;;;;;7.40;99.90;;;;;;5086619;28;19920;-64
2021/03/26 08:12:41;;;;;;;;;;;7.50;99.90;;;;;;5091309;28;19919;-64
2021/03/26 08:15:17;;;;;;;;;;;7.70;99.90;;;;;;5087746;28;19912;-64
2021/03/26 08:18:01;;;;;;;;;;;8.00;99.90;;;;;;5090405;28;20391;-64
2021/03/26 08:20:29;;;;;;;;;;;8.50;99.90;;;;;;5091637;28;19912;-64
2021/03/26 08:22:58;;;;;;;;;;;8.50;99.90;;;;;;5089694;28;19912;-64
2021/03/26 08:25:24;;;;;;;;;;;8.50;99.90;;;;;;5088684;28;19930;-62
2021/03/26 08:28:08;;;;;;;;;;;8.50;99.90;;;;;;5090100;28;19952;-64
2021/03/26 08:30:40;;;;;;;;;;;8.10;99.90;;;;;;5087941;28;19938;-65
2021/03/26 08:33:25;;;;;;;;;;;7.90;99.90;;;;;;5086502;28;19935;-64
2021/03/26 08:36:09;;;;;;;;;;;7.50;99.90;;;;;;5089861;28;19913;-65
2021/03/26 08:38:35;;;;;;;;;;;7.40;99.90;;;;;;5089512;28;19923;-65
2021/03/26 08:41:20;;;;;;;;;;;7.10;99.90;;;;;;5091543;28;19912;-63
2021/03/26 08:43:52;;;;;;;;;;;7.10;99.90;;;;;;5087476;28;19919;-64
2021/03/26 08:46:31;;;;;;;;;;;7.00;99.90;;;;;;5087339;28;19927;-63
2021/03/26 08:49:19;;;;;;;;;;;7.00;99.90;;;;;;5088679;28;19919;-63
2021/03/26 08:51:51;;;;;;;;;;;7.00;99.90;;;;;;5087943;28;20373;-63
2021/03/26 08:54:36;;;;;;;;;;;7.00;99.90;;;;;;5087291;28;19912;-63
2021/03/26 08:57:20;;;;;;;;;;;7.10;99.90;;;;;;5087800;28;20373;-64
2021/03/26 08:59:54;;;;;;;;;;;7.00;99.90;;;;;;5087917;28;19916;-64
2021/03/26 09:02:23;;;;;;;;;;;7.00;99.90;;;;;;5089089;28;19919;-63
2021/03/26 09:05:01;;;;;;;;;;;7.00;99.90;;;;;;5090159;28;20368;-64
2021/03/26 09:07:34;;;;;;;;;;;7.00;99.90;;;;;;5087728;28;20371;-64
2021/03/26 09:10:32;;;;;;;;;;;7.10;99.90;;;;;;5088055;28;20284;-64
2021/03/26 09:13:14;;;;;;;;;;;7.10;99.90;;;;;;5075171;28;20272;-63
2021/03/26 09:15:51;;;;;;;;;;;7.20;99.90;;;;;;5085226;28;19978;-64
2021/03/26 09:18:20;;;;;;;;;;;7.20;99.90;;;;;;5088614;28;20275;-63
2021/03/26 09:21:05;;;;;;;;;;;7.40;99.90;;;;;;5088179;28;20423;-64
2021/03/26 09:23:34;;;;;;;;;;;7.50;99.90;;;;;;5084816;28;19913;-63
2021/03/26 09:26:06;;;;;;;;;;;7.80;99.90;;;;;;5080855;28;19935;-64
2021/03/26 09:28:34;;;;;;;;;;;8.30;99.90;;;;;;5090146;28;19931;-64
2021/03/26 09:31:19;;;;;;;;;;;8.40;99.90;;;;;;5071222;28;19912;-64
2021/03/26 09:33:58;;;;;;;;;;;8.50;99.90;;;;;;5082191;28;19913;-64
2021/03/26 09:36:24;;;;;;;;;;;8.50;99.90;;;;;;5087189;28;19913;-64
2021/03/26 09:38:58;;;;;;;;;;;8.70;99.90;;;;;;5086932;28;20391;-64
2021/03/26 09:41:41;;;;;;;;;;;8.80;99.90;;;;;;5093077;28;20090;-64
2021/03/26 09:44:26;;;;;;;;;;;8.60;99.90;;;;;;5086635;28;19920;-64
2021/03/26 09:46:53;;;;;;;;;;;8.60;99.90;;;;;;5083770;28;19920;-64
2021/03/26 09:49:19;;;;;;;;;;;8.60;99.90;;;;;;5080037;28;19916;-64
2021/03/26 09:51:45;;;;;;;;;;;8.70;99.90;;;;;;5095289;28;20391;-65
2021/03/26 09:54:11;;;;;;;;;;;8.70;99.90;;;;;;5080100;28;19958;-64
2021/03/26 09:56:42;;;;;;;;;;;8.60;99.90;;;;;;5085757;28;20383;-64
2021/03/26 09:59:27;;;;;;;;;;;8.70;99.90;;;;;;5088663;28;20285;-64
2021/03/26 10:01:55;;;;;;;;;;;8.90;99.90;;;;;;5092654;28;19923;-64
2021/03/26 10:04:23;;;;;;;;;;;9.10;99.90;;;;;;5102401;28;19913;-64
2021/03/26 10:07:28;;;;;;;;;;;9.30;99.90;;;;;;5108949;28;19920;-64
2021/03/26 10:10:43;;;;;;;;;;;9.50;99.90;;;;;;5086239;28;19923;-62
2021/03/26 10:12:48;;;;;;;;;;;9.60;99.90;;;;;;5101080;28;19928;-62
2021/03/26 10:15:25;;;;;;;;;;;9.50;99.90;;;;;;5077302;28;19916;-64
2021/03/26 10:17:53;;;;;;;;;;;9.30;99.90;;;;;;5085935;28;20277;-67
2021/03/26 10:20:38;;;;;;;;;;;9.10;99.90;;;;;;5091898;28;19912;-64
2021/03/26 10:23:06;;;;;;;;;;;8.90;99.90;;;;;;5092418;28;19920;-64
2021/03/26 10:25:32;;;;;;;;;;;8.80;99.90;;;;;;5085022;28;20328;-64
2021/03/26 10:28:02;;;;;;;;;;;8.70;99.90;;;;;;5080838;28;19917;-64
2021/03/26 10:30:39;;;;;;;;;;;8.70;99.90;;;;;;5091298;28;19920;-64
2021/03/26 10:33:06;;;;;;;;;;;8.60;99.90;;;;;;5075207;28;19913;-64
2021/03/26 10:35:32;;;;;;;;;;;8.60;99.90;;;;;;5075210;28;19912;-63
2021/03/26 10:37:58;;;;;;;;;;;8.30;99.90;;;;;;5091026;28;20383;-62
2021/03/26 10:40:39;;;;;;;;;;;8.20;99.90;;;;;;5089787;28;20319;-63
2021/03/26 10:43:19;;;;;;;;;;;8.00;99.90;;;;;;5077449;28;19912;-62
2021/03/26 10:45:45;;;;;;;;;;;7.90;99.90;;;;;;5093773;28;19943;-62
2021/03/26 10:48:26;;;;;;;;;;;7.80;99.90;;;;;;5089252;28;20368;-62
2021/03/26 10:50:58;;;;;;;;;;;7.80;99.90;;;;;;5084020;28;19916;-63
2021/03/26 10:53:24;;;;;;;;;;;7.70;99.90;;;;;;5088170;28;20372;-63
2021/03/26 10:55:54;;;;;;;;;;;7.70;99.90;;;;;;5079020;28;19923;-63
2021/03/26 10:58:33;;;;;;;;;;;7.70;99.90;;;;;;5085381;28;20273;-63
2021/03/26 11:01:05;;;;;;;;;;;7.70;99.90;;;;;;5084490;28;19916;-63
2021/03/26 11:03:35;;;;;;;;;;;7.70;99.90;;;;;;5093913;28;19912;-63
2021/03/26 11:06:08;;;;;;;;;;;7.70;99.90;;;;;;5091642;28;19921;-65
2021/03/26 11:08:34;;;;;;;;;;;7.70;99.90;;;;;;5075280;28;19920;-63
2021/03/26 11:10:59;;;;;;;;;;;7.80;99.90;;;;;;5087831;28;19912;-65
2021/03/26 11:13:25;;;;;;;;;;;7.80;99.90;;;;;;5090318;28;19912;-63
2021/03/26 11:15:53;;;;;;;;;;;7.70;99.90;;;;;;5088838;28;20358;-63
2021/03/26 11:18:21;;;;;;;;;;;7.70;99.90;;;;;;5092058;28;19908;-63
2021/03/26 11:20:50;;;;;;;;;;;7.70;99.90;;;;;;5080998;28;19908;-62
2021/03/26 11:23:18;;;;;;;;;;;7.60;99.90;;;;;;5082307;28;20284;-64
2021/03/26 11:25:45;;;;;;;;;;;7.70;99.90;;;;;;5078234;28;19927;-62
2021/03/26 11:28:14;;;;;;;;;;;7.60;99.90;;;;;;5101447;28;19917;-63
2021/03/26 11:30:42;;;;;;;;;;;7.60;99.90;;;;;;5082984;28;19920;-63
2021/03/26 11:33:14;;;;;;;;;;;7.60;99.90;;;;;;5087196;28;19912;-63
2021/03/26 11:35:40;;;;;;;;;;;7.60;99.90;;;;;;5085414;28;19912;-64
2021/03/26 11:38:26;;;;;;;;;;;7.60;99.90;;;;;;5086759;28;20425;-62
2021/03/26 11:40:55;;;;;;;;;;;7.60;99.90;;;;;;5093615;28;19913;-64
2021/03/26 11:43:25;;;;;;;;;;;7.60;99.90;;;;;;5082456;28;19920;-61
2021/03/26 11:45:56;;;;;;;;;;;7.60;99.90;;;;;;5083171;28;19920;-62
2021/03/26 11:48:34;;;;;;;;;;;7.60;99.90;;;;;;5084728;28;19912;-63
2021/03/26 11:51:21;;;;;;;;;;;7.60;99.90;;;;;;5080683;28;19913;-62
2021/03/26 11:53:59;;;;;;;;;;;7.50;99.90;;;;;;5070997;28;20292;-63
2021/03/26 11:56:30;;;;;;;;;;;7.50;99.90;;;;;;5083167;28;19943;-62
2021/03/26 11:59:00;;;;;;;;;;;7.60;99.90;;;;;;5084235;28;19923;-63
2021/03/26 12:01:27;;;;;;;;;;;7.60;99.90;;;;;;5081749;28;19912;-62
2021/03/26 12:04:00;;;;;;;;;;;7.70;99.90;;;;;;5082052;28;19912;-63
2021/03/26 12:06:29;;;;;;;;;;;7.70;99.90;;;;;;5093034;28;19951;-63
2021/03/26 12:08:58;;;;;;;;;;;7.70;99.90;;;;;;5082722;28;19924;-64
2021/03/26 12:11:30;;;;;;;;;;;7.70;99.90;;;;;;5104132;28;19913;-63
2021/03/26 12:14:07;;;;;;;;;;;7.60;99.90;;;;;;5073871;28;19912;-63
2021/03/26 12:16:41;;;;;;;;;;;7.60;99.90;;;;;;5079359;28;19913;-63
2021/03/26 12:19:17;;;;;;;;;;;7.60;99.90;;;;;;5097577;28;19912;-64
2021/03/26 12:21:56;;;;;;;;;;;7.70;99.90;;;;;;5086383;28;19912;-63
2021/03/26 12:24:25;;;;;;;;;;;7.60;99.90;;;;;;5090823;28;19913;-64
2021/03/26 12:26:53;;;;;;;;;;;7.60;99.90;;;;;;5071805;28;19920;-64
2021/03/26 12:29:22;;;;;;;;;;;7.60;99.90;;;;;;5088306;28;19924;-66
2021/03/26 12:32:08;;;;;;;;;;;7.60;99.90;;;;;;5085348;28;19916;-63
2021/03/26 12:34:52;;;;;;;;;;;7.50;99.90;;;;;;5087977;28;20297;-65
2021/03/26 12:37:22;;;;;;;;;;;7.50;99.90;;;;;;5099585;28;19916;-64
2021/03/26 12:39:49;;;;;;;;;;;7.50;99.90;;;;;;5089083;28;19915;-65
2021/03/26 12:42:19;;;;;;;;;;;7.50;99.90;;;;;;5089008;28;20284;-64
2021/03/26 12:44:58;;;;;;;;;;;7.50;99.90;;;;;;5074555;28;19928;-65
2021/03/26 12:47:28;;;;;;;;;;;7.60;99.90;;;;;;5086877;28;19927;-66
2021/03/26 12:50:12;;;;;;;;;;;7.60;99.90;;;;;;5080197;28;19912;-65
2021/03/26 12:52:56;;;;;;;;;;;7.70;99.90;;;;;;5072395;28;20377;-65
2021/03/26 12:55:33;;;;;;;;;;;7.80;99.90;;;;;;5073715;28;19918;-65
2021/03/26 12:58:02;;;;;;;;;;;7.90;99.90;;;;;;5078797;28;20277;-65
2021/03/26 13:00:31;;;;;;;;;;;7.90;99.90;;;;;;5073868;28;20361;-64
2021/03/26 13:02:59;;;;;;;;;;;7.90;99.90;;;;;;5073902;28;20280;-64
2021/03/26 13:05:26;;;;;;;;;;;7.90;99.90;;;;;;5099758;28;19927;-65
2021/03/26 13:07:52;;;;;;;;;;;7.90;99.90;;;;;;5089631;28;19919;-65
2021/03/26 13:10:36;;;;;;;;;;;8.00;99.90;;;;;;5091856;28;20364;-65
2021/03/26 13:13:12;;;;;;;;;;;8.00;99.90;;;;;;5088915;28;19912;-65
2021/03/26 13:15:37;;;;;;;;;;;8.10;99.90;;;;;;5094732;28;19912;-63
2021/03/26 13:18:10;;;;;;;;;;;8.20;99.90;;;;;;5076879;28;20015;-63
2021/03/26 13:20:55;;;;;;;;;;;8.20;99.90;;;;;;5096776;28;19920;-65
2021/03/26 13:23:22;;;;;;;;;;;8.30;99.90;;;;;;5085508;28;19920;-65
2021/03/26 13:25:57;;;;;;;;;;;8.40;99.90;;;;;;5074063;28;19935;-65
2021/03/26 13:28:27;;;;;;;;;;;8.40;99.90;;;;;;5088274;28;19919;-63
2021/03/26 13:30:59;;;;;;;;;;;8.50;99.90;;;;;;5073158;28;19916;-65
2021/03/26 13:33:25;;;;;;;;;;;8.50;99.90;;;;;;5072137;28;19932;-63
2021/03/26 13:35:54;;;;;;;;;;;8.50;99.90;;;;;;5081410;28;20019;-63
2021/03/26 13:38:20;;;;;;;;;;;8.60;99.90;;;;;;5087737;28;19923;-64
2021/03/26 13:40:46;;;;;;;;;;;8.60;99.90;;;;;;5078239;28;19917;-63
2021/03/26 13:43:17;;;;;;;;;;;8.60;99.90;;;;;;5078225;28;19924;-64
2021/03/26 13:45:56;;;;;;;;;;;8.60;99.90;;;;;;5105144;28;20293;-61
2021/03/26 13:48:22;;;;;;;;;;;8.70;99.90;;;;;;5086568;28;19912;-61
2021/03/26 13:51:03;;;;;;;;;;;8.80;99.90;;;;;;5092978;28;19912;-61
2021/03/26 13:53:49;;;;;;;;;;;8.80;99.90;;;;;;5095764;28;19912;-61
2021/03/26 13:56:16;;;;;;;;;;;8.80;99.90;;;;;;5069494;28;19912;-62
2021/03/26 13:58:52;;;;;;;;;;;9.10;99.90;;;;;;5094949;28;19912;-62
2021/03/26 14:01:32;;;;;;;;;;;9.20;99.90;;;;;;5096889;28;19917;-61
2021/03/26 14:03:59;;;;;;;;;;;9.20;99.90;;;;;;5087430;28;19912;-62
2021/03/26 14:06:28;;;;;;;;;;;9.30;99.90;;;;;;5093878;28;19931;-61
2021/03/26 14:08:53;;;;;;;;;;;9.60;99.90;;;;;;5069736;28;19912;-61
2021/03/26 14:11:30;;;;;;;;;;;10.00;99.90;;;;;;5077688;28;19912;-61
2021/03/26 14:13:59;;;;;;;;;;;10.20;99.90;;;;;;5088907;28;19919;-61
2021/03/26 14:16:44;;;;;;;;;;;10.50;99.90;;;;;;5081086;28;19918;-62
2021/03/26 14:19:13;;;;;;;;;;;10.60;99.90;;;;;;5086386;28;20307;-61
2021/03/26 14:21:40;;;;;;;;;;;10.60;99.90;;;;;;5075887;28;20374;-61
2021/03/26 14:24:12;;;;;;;;;;;10.70;99.90;;;;;;5102126;28;20412;-62
2021/03/26 14:26:40;;;;;;;;;;;11.00;99.90;;;;;;5074192;28;19921;-60
2021/03/26 14:29:17;;;;;;;;;;;11.10;99.90;;;;;;5094050;28;20300;-62
2021/03/26 14:31:44;;;;;;;;;;;11.20;99.90;;;;;;5105922;28;20377;-62
2021/03/26 14:34:16;;;;;;;;;;;11.00;99.90;;;;;;5082163;28;19920;-62
2021/03/26 14:36:50;;;;;;;;;;;11.30;99.90;;;;;;5075193;28;19912;-59
2021/03/26 14:39:16;;;;;;;;;;;11.50;99.90;;;;;;5076217;28;19917;-60
2021/03/26 14:41:42;;;;;;;;;;;11.30;99.90;;;;;;5075216;28;19919;-60
2021/03/26 14:44:12;;;;;;;;;;;11.10;99.90;;;;;;5089763;28;19919;-60
2021/03/26 14:46:53;;;;;;;;;;;10.80;99.90;;;;;;5093107;28;19920;-62
2021/03/26 14:49:33;;;;;;;;;;;10.50;99.90;;;;;;5086979;28;19912;-62
2021/03/26 14:51:59;;;;;;;;;;;10.40;99.90;;;;;;5083313;28;19912;-62
2021/03/26 14:54:33;;;;;;;;;;;10.20;99.90;;;;;;5078648;28;19974;-62
2021/03/26 14:56:59;;;;;;;;;;;10.10;99.90;;;;;;5105458;28;19920;-62
2021/03/26 14:59:28;;;;;;;;;;;9.90;99.90;;;;;;5090752;28;20098;-62